Highland Beach, Florida
Current Conditions -  °F | °C
As of 12:53 PM on Friday 28 Nov 2014 (Local Time) from KPMP Reporting Station
Clear Clear  
Wind Chill: 70°   Ceiling: Unl
Heat Index: 70°   Visibility: 10mi
Dew Point: 50°   Wind: 12mph
Humidity: 49%   Direction: 360°N
Pressure: 30.18"   Gusts: 21mph
Location:  26.4095°N, 80.0961°W
Report Text: KPMP 281753Z 36010G18KT 10SM CLR 21/10 A3018 RMK AO2 SLP222 T02110100 10217 20111 58020
Loading
Personal Weather Stations






























Interactive Weather Map New forecast layout! Learn more

10-Day Weather Forecast

Advertisements
Track Severe Weather on mobile